Time;durP1;ratioP1;P1;durP2;ratioP2;P2;SDS_P1;SDS_P2;PMS_P1;PMS_P2;Temp;Humidity;BMP_temperature;BMP_pressure;BME280_temperature;BME280_humidity;BME280_pressure;Samples;Min_cycle;Max_cycle;Signal;HPM_P1;HPM_P2
2022/04/28 00:00:24;;;;;;;11.77;8.73;;;14.30;69.60;;;;;;4872300;29;20488;-84
2022/04/28 00:02:52;;;;;;;9.13;8.13;;;14.30;69.60;;;;;;4874065;29;20471;-83
2022/04/28 00:05:19;;;;;;;9.67;8.77;;;14.20;69.60;;;;;;4872526;29;20459;-85
2022/04/28 00:07:46;;;;;;;11.73;8.70;;;14.20;69.90;;;;;;4869963;29;20532;-87
2022/04/28 00:10:14;;;;;;;9.77;8.00;;;14.20;69.60;;;;;;4871045;29;20487;-83
2022/04/28 00:12:41;;;;;;;8.80;7.90;;;14.20;69.80;;;;;;4868835;29;20587;-84
2022/04/28 00:15:09;;;;;;;7.77;7.07;;;14.20;69.90;;;;;;4883712;29;20474;-81
2022/04/28 00:17:36;;;;;;;8.60;7.80;;;14.20;69.80;;;;;;4869068;29;20970;-84
2022/04/28 00:20:04;;;;;;;10.47;7.63;;;14.20;69.60;;;;;;4873878;29;20483;-83
2022/04/28 00:22:31;;;;;;;8.80;7.90;;;14.20;69.70;;;;;;4869040;29;20464;-84
2022/04/28 00:24:57;;;;;;;9.57;8.03;;;14.20;70.00;;;;;;4870624;29;20472;-84
2022/04/28 00:27:24;;;;;;;10.97;8.37;;;14.20;70.00;;;;;;4882366;29;20468;-85
2022/04/28 00:29:51;;;;;;;9.43;8.53;;;14.20;69.90;;;;;;4871802;29;20460;-85
2022/04/28 00:32:17;;;;;;;9.13;7.33;;;14.20;69.50;;;;;;4872922;29;20484;-84
2022/04/28 00:34:46;;;;;;;9.07;7.77;;;14.20;70.00;;;;;;4872980;29;21059;-84
2022/04/28 00:37:14;;;;;;;8.20;7.23;;;14.10;70.00;;;;;;4870126;29;20547;-86
2022/04/28 00:39:41;;;;;;;7.67;6.90;;;14.10;70.20;;;;;;4888027;29;20528;-86
2022/04/28 00:42:12;;;;;;;9.80;7.60;;;14.00;70.30;;;;;;4875736;29;20496;-84
2022/04/28 00:44:40;;;;;;;8.77;7.57;;;13.90;70.60;;;;;;4874270;29;20469;-83
2022/04/28 00:47:07;;;;;;;8.70;7.20;;;13.80;70.90;;;;;;4875216;29;22226;-81
2022/04/28 00:52:20;;;;;;;9.97;8.80;;;13.80;71.60;;;;;;4877913;29;20514;-85
2022/04/28 00:54:49;;;;;;;9.37;7.00;;;13.80;71.70;;;;;;4877822;29;20475;-85
2022/04/28 00:57:17;;;;;;;10.33;7.30;;;13.70;71.80;;;;;;4876530;29;20461;-86
2022/04/28 00:59:46;;;;;;;8.70;7.20;;;13.70;71.90;;;;;;4891395;29;20503;-84
2022/04/28 01:02:13;;;;;;;8.33;7.00;;;13.60;71.90;;;;;;4878070;29;20499;-85
2022/04/28 01:04:40;;;;;;;8.03;7.17;;;13.60;72.10;;;;;;4873195;29;20460;-83
2022/04/28 01:07:06;;;;;;;6.70;6.10;;;13.60;72.30;;;;;;4881169;29;20492;-82
2022/04/28 01:09:37;;;;;;;7.60;6.10;;;13.50;72.30;;;;;;4883829;29;20472;-84
2022/04/28 01:12:05;;;;;;;7.50;5.83;;;13.50;72.20;;;;;;4873723;29;20500;-82
2022/04/28 01:14:32;;;;;;;8.40;5.40;;;13.50;72.30;;;;;;4873561;29;20469;-84
2022/04/28 01:17:00;;;;;;;8.30;6.83;;;13.50;72.50;;;;;;4872412;29;20465;-84
2022/04/28 01:19:28;;;;;;;7.90;6.13;;;13.50;72.30;;;;;;4875119;29;20461;-84
2022/04/28 01:21:57;;;;;;;6.80;5.60;;;13.40;72.30;;;;;;4875321;29;20492;-85
2022/04/28 01:24:24;;;;;;;9.20;6.00;;;13.50;72.30;;;;;;4876257;29;21094;-86
2022/04/28 01:26:56;;;;;;;7.60;6.10;;;13.50;72.10;;;;;;4876259;29;20467;-83
2022/04/28 01:29:23;;;;;;;6.77;6.07;;;13.50;71.80;;;;;;4886361;29;20511;-84
2022/04/28 01:31:53;;;;;;;7.67;6.83;;;13.50;72.00;;;;;;4887635;29;20480;-86
2022/04/28 01:34:20;;;;;;;9.37;6.80;;;13.60;72.00;;;;;;4900751;29;20486;-85
2022/04/28 01:36:47;;;;;;;7.63;6.77;;;13.50;71.70;;;;;;4887240;29;20467;-85
2022/04/28 01:39:14;;;;;;;8.50;6.67;;;13.30;72.30;;;;;;4888829;29;20460;-86
2022/04/28 01:41:42;;;;;;;6.40;5.70;;;13.30;73.10;;;;;;4902769;29;20513;-84
2022/04/28 01:44:09;;;;;;;7.10;6.40;;;13.20;73.50;;;;;;4896863;29;20461;-83
2022/04/28 01:46:36;;;;;;;8.07;6.63;;;13.10;73.90;;;;;;4873171;29;20498;-84
2022/04/28 01:49:03;;;;;;;7.47;6.47;;;12.90;74.30;;;;;;4870635;29;20456;-84
2022/04/28 01:57:02;;;;;;;9.30;7.40;;;12.70;76.10;;;;;;4872603;29;20891;-84
2022/04/28 01:59:29;;;;;;;9.73;7.03;;;12.70;76.70;;;;;;4875828;29;20468;-86
2022/04/28 02:01:56;;;;;;;7.47;6.57;;;12.70;77.10;;;;;;4873328;29;20576;-84
2022/04/28 02:04:23;;;;;;;8.73;7.10;;;12.70;77.10;;;;;;4886592;29;20544;-84
2022/04/28 02:06:50;;;;;;;6.10;5.50;;;12.70;77.40;;;;;;4871471;29;20475;-83
2022/04/28 02:09:17;;;;;;;8.10;7.30;;;12.80;77.70;;;;;;4871837;29;20477;-83
2022/04/28 02:11:43;;;;;;;8.83;7.40;;;12.70;77.90;;;;;;4881924;29;20500;-83
2022/04/28 02:14:10;;;;;;;8.67;6.70;;;12.80;78.30;;;;;;4865528;29;20464;-82
2022/04/28 02:16:37;;;;;;;8.60;7.37;;;12.70;78.20;;;;;;4869871;29;22076;-82
2022/04/28 02:19:04;;;;;;;8.40;6.93;;;12.70;78.60;;;;;;4868669;29;20484;-84
2022/04/28 02:21:31;;;;;;;10.30;7.70;;;12.70;78.80;;;;;;4877716;29;20485;-84
2022/04/28 02:23:58;;;;;;;7.50;6.90;;;12.60;78.90;;;;;;4878367;29;20481;-85
2022/04/28 02:26:25;;;;;;;8.30;6.93;;;12.60;79.20;;;;;;4876218;29;20471;-84
2022/04/28 02:28:51;;;;;;;8.87;7.60;;;12.60;79.50;;;;;;4879730;29;20459;-85
2022/04/28 02:31:18;;;;;;;7.50;6.50;;;12.60;79.70;;;;;;4893566;29;20484;-86
2022/04/28 02:33:45;;;;;;;8.83;7.37;;;12.70;80.00;;;;;;4882487;29;20745;-84
2022/04/28 02:36:12;;;;;;;8.50;7.70;;;12.60;80.10;;;;;;4879090;29;20445;-85
2022/04/28 02:38:39;;;;;;;8.93;7.37;;;12.60;80.30;;;;;;4876505;29;20482;-83
2022/04/28 02:41:06;;;;;;;8.77;7.30;;;12.70;80.60;;;;;;4892556;29;20478;-88
2022/04/28 02:43:34;;;;;;;8.40;7.50;;;12.60;80.70;;;;;;4871347;29;20505;-86
2022/04/28 02:46:01;;;;;;;8.83;7.00;;;12.70;81.10;;;;;;4881193;29;20488;-83
2022/04/28 02:48:28;;;;;;;8.50;7.70;;;12.60;81.00;;;;;;4877321;29;20581;-82
2022/04/28 02:50:55;;;;;;;8.20;7.40;;;12.70;81.20;;;;;;4887077;29;20533;-83
2022/04/28 02:53:21;;;;;;;9.30;7.60;;;12.70;81.30;;;;;;4867376;29;21116;-83
2022/04/28 02:55:48;;;;;;;8.93;8.03;;;12.70;81.50;;;;;;4865574;29;20522;-83
2022/04/28 02:58:15;;;;;;;10.00;8.00;;;12.60;81.60;;;;;;4867235;29;20460;-83
2022/04/28 03:00:41;;;;;;;8.63;7.70;;;12.60;81.80;;;;;;4866849;29;20547;-83
2022/04/28 03:03:09;;;;;;;7.77;6.97;;;12.60;82.00;;;;;;4867666;29;20471;-82
2022/04/28 03:11:12;;;;;;;15.17;9.27;;;12.70;82.70;;;;;;4876891;29;20500;-84
2022/04/28 03:13:39;;;;;;;11.93;7.60;;;12.60;82.60;;;;;;4877634;29;20516;-85
2022/04/28 03:16:06;;;;;;;10.77;8.73;;;12.60;82.90;;;;;;4878531;29;20488;-82
2022/04/28 03:18:33;;;;;;;10.97;7.53;;;12.60;83.00;;;;;;4881181;29;20493;-83
2022/04/28 03:21:00;;;;;;;10.03;7.53;;;12.60;83.40;;;;;;4880853;29;20491;-84
2022/04/28 03:23:27;;;;;;;9.70;8.80;;;12.50;83.60;;;;;;4880010;29;21997;-83
2022/04/28 03:25:54;;;;;;;9.43;7.93;;;12.50;84.00;;;;;;4873428;29;20456;-84
2022/04/28 03:28:21;;;;;;;11.27;7.37;;;12.40;84.30;;;;;;4866703;29;20457;-86
2022/04/28 03:30:51;;;;;;;8.77;7.80;;;12.40;84.60;;;;;;4873173;29;20489;-83
2022/04/28 03:33:18;;;;;;;9.60;7.93;;;12.40;84.80;;;;;;4878804;29;20484;-85
2022/04/28 03:35:45;;;;;;;9.37;8.30;;;12.40;85.40;;;;;;4891525;29;20471;-86
2022/04/28 03:38:13;;;;;;;9.93;8.93;;;12.40;85.50;;;;;;4874648;29;20468;-84
2022/04/28 03:40:41;;;;;;;10.83;8.87;;;12.40;85.80;;;;;;4880205;29;20536;-86
2022/04/28 03:43:09;;;;;;;8.90;7.73;;;12.30;86.30;;;;;;4888082;29;20869;-83
2022/04/28 03:45:37;;;;;;;11.20;8.03;;;12.30;86.50;;;;;;4865859;29;20463;-83
2022/04/28 03:48:04;;;;;;;9.53;8.03;;;12.20;87.00;;;;;;4878049;29;20985;-83
2022/04/28 03:50:31;;;;;;;12.63;8.40;;;12.20;87.30;;;;;;4880828;29;20497;-83
2022/04/28 03:52:58;;;;;;;11.33;7.60;;;12.20;87.50;;;;;;4865376;29;20504;-84
2022/04/28 03:55:25;;;;;;;8.90;8.00;;;12.10;87.90;;;;;;4864682;29;20544;-84
2022/04/28 03:57:53;;;;;;;10.60;8.10;;;12.10;88.40;;;;;;4869499;29;20472;-84
2022/04/28 04:00:20;;;;;;;11.20;8.50;;;12.10;88.80;;;;;;4867847;29;20568;-82
2022/04/28 04:02:48;;;;;;;9.10;8.13;;;12.10;89.30;;;;;;4878507;29;20479;-83
2022/04/28 04:05:16;;;;;;;12.13;9.40;;;12.00;89.40;;;;;;4867602;29;20491;-85
2022/04/28 04:07:43;;;;;;;9.17;8.23;;;11.90;89.30;;;;;;4868345;29;20452;-85
2022/04/28 04:10:13;;;;;;;9.60;8.43;;;11.90;89.60;;;;;;4867918;29;20572;-85
2022/04/28 04:12:40;;;;;;;10.20;8.77;;;11.90;90.10;;;;;;4870229;29;20498;-85
2022/04/28 04:15:07;;;;;;;13.80;8.77;;;11.80;90.30;;;;;;4872915;29;20523;-84
2022/04/28 04:17:45;;;;;;;10.80;8.57;;;11.80;90.40;;;;;;4873502;29;20456;-85
2022/04/28 04:20:13;;;;;;;9.57;8.40;;;11.80;90.70;;;;;;4887853;29;20483;-85
2022/04/28 04:22:41;;;;;;;9.10;7.80;;;11.70;90.80;;;;;;4872361;29;21057;-85
2022/04/28 04:25:08;;;;;;;13.30;9.07;;;11.70;91.00;;;;;;4875213;29;20958;-85
2022/04/28 04:27:36;;;;;;;10.73;8.77;;;11.70;91.20;;;;;;4872832;29;21796;-83
2022/04/28 04:32:17;;;;;;;11.13;8.53;;;11.70;91.40;;;;;;4875615;29;20475;-84
2022/04/28 04:32:50;;;;;;;11.33;9.03;;;11.80;91.60;;;;;;4878503;29;20488;-86
2022/04/28 04:35:17;;;;;;;13.43;8.93;;;11.70;91.60;;;;;;4875452;29;20468;-86
2022/04/28 04:37:44;;;;;;;11.67;9.33;;;11.80;91.70;;;;;;4878096;29;20500;-86
2022/04/28 04:40:12;;;;;;;11.10;8.90;;;11.80;91.70;;;;;;4881923;29;20481;-85
2022/04/28 04:42:40;;;;;;;10.40;8.47;;;11.80;91.80;;;;;;4904136;29;20477;-85
2022/04/28 04:45:08;;;;;;;11.13;7.77;;;11.90;92.00;;;;;;4890019;29;20456;-86
2022/04/28 04:47:36;;;;;;;11.87;8.17;;;11.90;92.00;;;;;;4891279;29;20461;-83
2022/04/28 04:50:04;;;;;;;10.27;8.70;;;11.90;92.10;;;;;;4877550;29;21727;-83
2022/04/28 04:52:31;;;;;;;10.63;9.60;;;11.90;92.20;;;;;;4876038;29;20476;-84
2022/04/28 04:54:58;;;;;;;9.70;8.30;;;11.80;92.20;;;;;;4875567;29;20460;-84
2022/04/28 04:57:26;;;;;;;11.80;9.37;;;11.90;92.20;;;;;;4877368;29;20460;-84
2022/04/28 04:59:53;;;;;;;11.00;9.40;;;11.90;92.10;;;;;;4878322;29;20477;-84
2022/04/28 05:02:20;;;;;;;10.40;9.03;;;11.90;92.10;;;;;;4876022;29;20488;-85
2022/04/28 05:04:47;;;;;;;14.20;9.97;;;12.10;92.30;;;;;;4876311;29;20456;-80
2022/04/28 05:07:13;;;;;;;13.57;9.00;;;12.20;91.70;;;;;;4877934;29;20518;-86
2022/04/28 05:09:40;;;;;;;11.60;9.20;;;12.20;91.60;;;;;;4882249;29;20467;-84
2022/04/28 05:12:07;;;;;;;10.60;9.33;;;12.10;91.70;;;;;;4873437;29;20499;-85
2022/04/28 05:14:38;;;;;;;13.90;9.60;;;12.20;92.00;;;;;;4875658;29;21028;-82
2022/04/28 05:17:05;;;;;;;11.87;8.80;;;12.40;91.60;;;;;;4875090;29;20489;-83
2022/04/28 05:19:33;;;;;;;15.90;10.17;;;12.20;91.70;;;;;;4860868;29;20463;-85
2022/04/28 05:22:00;;;;;;;15.23;9.50;;;12.10;92.10;;;;;;4849040;29;20495;-84
2022/04/28 05:24:26;;;;;;;12.43;10.30;;;12.10;92.30;;;;;;4890234;29;20472;-82
2022/04/28 05:26:53;;;;;;;13.80;10.70;;;12.10;92.40;;;;;;4872272;29;20494;-84
2022/04/28 05:29:20;;;;;;;13.87;10.23;;;12.40;92.10;;;;;;4871232;29;20605;-85
2022/04/28 05:31:47;;;;;;;12.80;11.50;;;12.20;91.90;;;;;;4872597;29;20495;-84
2022/04/28 05:34:14;;;;;;;12.00;10.37;;;12.20;91.70;;;;;;4873192;29;20532;-86
2022/04/28 05:36:41;;;;;;;13.50;11.83;;;12.20;91.90;;;;;;4870690;29;20484;-85
2022/04/28 05:39:10;;;;;;;11.73;10.40;;;12.30;91.60;;;;;;4878650;29;20493;-85
2022/04/28 05:41:39;;;;;;;15.40;12.43;;;12.20;91.60;;;;;;4875081;29;20884;-85
2022/04/28 05:46:52;;;;;;;14.43;11.17;;;12.20;91.90;;;;;;4875332;29;20467;-86
2022/04/28 05:49:20;;;;;;;12.37;10.73;;;12.30;92.10;;;;;;4889309;29;20461;-84
2022/04/28 05:51:47;;;;;;;15.50;12.13;;;12.30;92.00;;;;;;4877224;29;20468;-87
2022/04/28 05:54:15;;;;;;;13.90;12.50;;;12.40;92.10;;;;;;4876128;29;20473;-84
2022/04/28 05:56:47;;;;;;;15.90;12.47;;;12.70;91.30;;;;;;4879141;29;20547;-85
2022/04/28 05:59:14;;;;;;;16.00;12.20;;;12.60;91.20;;;;;;4880435;29;20447;-86
2022/04/28 06:01:41;;;;;;;19.10;11.83;;;12.60;91.20;;;;;;4876170;29;20476;-88
2022/04/28 06:04:09;;;;;;;15.90;12.73;;;12.60;91.20;;;;;;4878833;29;20479;-86
2022/04/28 06:06:39;;;;;;;19.63;12.23;;;12.60;91.10;;;;;;4877110;29;20488;-85
2022/04/28 06:09:05;;;;;;;18.27;12.90;;;13.00;91.00;;;;;;4876956;29;20453;-87
2022/04/28 06:11:32;;;;;;;15.27;12.43;;;13.30;90.60;;;;;;4884665;29;20480;-85
2022/04/28 06:13:59;;;;;;;15.53;12.00;;;13.20;90.30;;;;;;4885139;29;20552;-86
2022/04/28 06:16:26;;;;;;;13.30;11.60;;;14.10;90.90;;;;;;4881265;29;20555;-83
2022/04/28 06:18:52;;;;;;;15.07;13.37;;;16.70;84.60;;;;;;4874920;29;20463;-83
2022/04/28 06:21:19;;;;;;;13.77;12.37;;;19.30;71.80;;;;;;4874305;29;20488;-84
2022/04/28 06:23:46;;;;;;;14.77;13.27;;;20.80;63.00;;;;;;4875406;29;20463;-85
2022/04/28 06:26:13;;;;;;;14.53;13.13;;;22.40;57.80;;;;;;4875809;29;21307;-85
2022/04/28 06:28:40;;;;;;;20.50;12.87;;;23.40;53.90;;;;;;4858691;29;20453;-83
2022/04/28 06:31:10;;;;;;;16.07;13.80;;;23.40;51.70;;;;;;4870251;29;20476;-85
2022/04/28 06:33:41;;;;;;;13.93;12.50;;;23.10;51.30;;;;;;4872039;29;20547;-86
2022/04/28 06:36:07;;;;;;;14.33;12.70;;;22.10;51.40;;;;;;4873910;29;20459;-85
2022/04/28 06:38:39;;;;;;;15.83;13.60;;;20.30;53.20;;;;;;4874647;29;20912;-83
2022/04/28 06:41:09;;;;;;;16.17;12.53;;;18.10;56.80;;;;;;4874970;29;20484;-85
2022/04/28 06:43:37;;;;;;;15.17;13.57;;;16.40;60.20;;;;;;4876256;29;20461;-85
2022/04/28 06:46:13;;;;;;;16.20;13.83;;;15.80;65.10;;;;;;4877489;29;20480;-85
2022/04/28 06:48:41;;;;;;;18.70;14.97;;;15.30;68.00;;;;;;4876600;29;20588;-83
2022/04/28 06:51:08;;;;;;;17.30;15.20;;;15.10;70.30;;;;;;4878520;29;20532;-86
2022/04/28 06:53:36;;;;;;;15.00;13.60;;;14.80;72.60;;;;;;4876430;29;20495;-85
2022/04/28 06:56:03;;;;;;;14.70;12.97;;;14.60;74.80;;;;;;4877325;29;20927;-85
2022/04/28 06:58:30;;;;;;;17.80;15.17;;;14.50;76.10;;;;;;4874046;29;20465;-87
2022/04/28 07:00:58;;;;;;;15.53;13.80;;;14.50;78.10;;;;;;4885558;29;20504;-84
2022/04/28 07:03:24;;;;;;;18.03;15.40;;;14.70;78.30;;;;;;4871156;29;20476;-88
2022/04/28 07:05:53;;;;;;;17.00;14.33;;;15.20;77.70;;;;;;4870598;29;20476;-85
2022/04/28 07:08:20;;;;;;;16.20;14.50;;;15.40;75.10;;;;;;4868588;29;20461;-84
2022/04/28 07:10:47;;;;;;;13.93;12.43;;;16.20;74.20;;;;;;4868185;29;20492;-85
2022/04/28 07:13:13;;;;;;;17.90;13.20;;;16.50;72.20;;;;;;4868246;29;20496;-84
2022/04/28 07:15:41;;;;;;;21.30;14.73;;;17.60;69.50;;;;;;4867822;29;21083;-81
2022/04/28 07:18:09;;;;;;;17.10;14.77;;;17.50;66.60;;;;;;4867335;29;20453;-83
2022/04/28 07:20:36;;;;;;;18.87;14.87;;;19.10;64.90;;;;;;4872563;29;20500;-82
2022/04/28 07:23:03;;;;;;;16.07;13.17;;;21.30;59.60;;;;;;4867795;29;20489;-84
2022/04/28 07:25:30;;;;;;;18.53;13.73;;;23.60;53.70;;;;;;4869477;29;20473;-83
2022/04/28 07:27:57;;;;;;;17.63;14.90;;;24.50;50.80;;;;;;4868707;29;20475;-86
2022/04/28 07:30:26;;;;;;;15.20;13.70;;;24.90;48.70;;;;;;4871684;29;20480;-86
2022/04/28 07:32:52;;;;;;;15.93;14.10;;;25.20;47.80;;;;;;4868464;29;21290;-84
2022/04/28 07:35:21;;;;;;;17.63;13.67;;;25.90;45.90;;;;;;4874791;29;20452;-86
2022/04/28 07:37:48;;;;;;;17.53;14.10;;;26.00;45.10;;;;;;4869704;29;20551;-84
2022/04/28 07:40:15;;;;;;;16.27;14.60;;;26.10;44.60;;;;;;4871623;29;20482;-86
2022/04/28 07:42:42;;;;;;;16.47;14.97;;;26.50;43.70;;;;;;4872621;29;21219;-87
2022/04/28 07:45:11;;;;;;;18.80;15.40;;;26.80;43.20;;;;;;4872601;29;20469;-86
2022/04/28 07:47:41;;;;;;;17.10;15.40;;;26.90;42.20;;;;;;4867864;29;20554;-84
2022/04/28 07:50:12;;;;;;;16.40;14.70;;;27.20;42.00;;;;;;4869753;29;20464;-84
2022/04/28 07:52:38;;;;;;;16.80;14.80;;;27.60;41.10;;;;;;4870613;29;20945;-83
2022/04/28 07:55:06;;;;;;;17.80;15.10;;;27.20;41.30;;;;;;4874563;29;20467;-84
2022/04/28 07:57:34;;;;;;;16.90;15.13;;;27.10;41.40;;;;;;4869813;29;20456;-86
2022/04/28 08:00:01;;;;;;;17.40;15.60;;;27.80;40.20;;;;;;4867512;29;20468;-86
2022/04/28 08:02:29;;;;;;;17.70;15.20;;;27.70;39.80;;;;;;4866598;29;20509;-86
2022/04/28 08:04:56;;;;;;;16.23;14.63;;;27.90;40.20;;;;;;4868234;29;20465;-85
2022/04/28 08:07:23;;;;;;;17.50;15.80;;;28.30;39.10;;;;;;4868264;29;20464;-82
2022/04/28 08:09:50;;;;;;;16.53;14.93;;;28.70;38.60;;;;;;4869643;29;21099;-84
2022/04/28 08:12:20;;;;;;;16.67;14.97;;;29.20;37.80;;;;;;4872589;29;20530;-86
2022/04/28 08:15:07;;;;;;;15.57;14.20;;;28.90;37.70;;;;;;4868873;29;20497;-82
2022/04/28 08:17:34;;;;;;;17.93;16.23;;;28.40;38.10;;;;;;4868730;29;20456;-84
2022/04/28 08:20:04;;;;;;;16.47;14.87;;;27.60;38.40;;;;;;4875123;29;20491;-83
2022/04/28 08:22:31;;;;;;;17.80;15.67;;;28.50;38.60;;;;;;4890577;29;20544;-87
2022/04/28 08:24:58;;;;;;;16.80;15.20;;;29.50;37.50;;;;;;4874302;29;20460;-84
2022/04/28 08:27:25;;;;;;;25.73;23.53;;;30.30;35.50;;;;;;4873356;29;20573;-86
2022/04/28 08:29:52;;;;;;;17.23;15.57;;;30.20;35.30;;;;;;4875388;29;20456;-84
2022/04/28 08:32:21;;;;;;;16.63;15.23;;;30.10;34.10;;;;;;4873236;29;20456;-85
2022/04/28 08:34:56;;;;;;;17.63;15.83;;;29.70;35.00;;;;;;4874044;29;20456;-84
2022/04/28 08:37:23;;;;;;;17.53;15.70;;;29.70;34.80;;;;;;4872278;29;20466;-84
2022/04/28 08:39:50;;;;;;;17.50;15.80;;;29.70;35.20;;;;;;4874288;29;20475;-87
2022/04/28 08:45:12;;;;;;;18.40;16.10;;;29.90;34.70;;;;;;4918377;29;20508;-86
2022/04/28 08:47:39;;;;;;;17.73;15.90;;;29.60;35.00;;;;;;4920392;29;20468;-86
2022/04/28 08:50:07;;;;;;;20.03;16.00;;;29.80;34.80;;;;;;4924443;29;20486;-86
2022/04/28 08:52:36;;;;;;;17.03;15.63;;;29.50;34.70;;;;;;4920808;29;21031;-86
2022/04/28 08:55:03;;;;;;;15.93;14.63;;;29.70;34.10;;;;;;4917786;29;20463;-85
2022/04/28 08:57:33;;;;;;;17.10;15.60;;;29.50;34.10;;;;;;4921699;29;20469;-85
2022/04/28 09:00:01;;;;;;;16.20;14.80;;;29.20;35.40;;;;;;4928047;28;20505;-88
2022/04/28 09:02:29;;;;;;;18.90;16.90;;;29.80;34.50;;;;;;4927996;29;20482;-88
2022/04/28 09:05:05;;;;;;;18.57;16.87;;;30.10;34.50;;;;;;4928894;29;20459;-86
2022/04/28 09:07:36;;;;;;;17.50;15.70;;;29.80;33.80;;;;;;4924013;29;20442;-88
2022/04/28 09:10:32;;;;;;;21.90;18.23;;;29.80;33.80;;;;;;4936913;29;20524;-87
2022/04/28 09:15:51;;;;;;;19.30;17.30;;;29.90;34.10;;;;;;4922483;29;20451;-84
2022/04/28 09:18:20;;;;;;;19.20;17.50;;;30.00;33.10;;;;;;4918432;29;20458;-86
2022/04/28 09:20:48;;;;;;;17.27;15.47;;;29.40;34.20;;;;;;4917474;29;20521;-83
2022/04/28 09:23:17;;;;;;;18.30;16.43;;;29.70;33.50;;;;;;4920289;29;20545;-86
2022/04/28 09:25:45;;;;;;;14.63;13.30;;;29.00;34.10;;;;;;4922258;29;20458;-87
2022/04/28 09:28:13;;;;;;;16.00;14.60;;;29.40;34.00;;;;;;4917201;29;20459;-85
2022/04/28 09:30:49;;;;;;;14.90;13.50;;;29.80;32.60;;;;;;4915725;29;20553;-87
2022/04/28 09:33:22;;;;;;;14.50;13.30;;;29.80;33.50;;;;;;4920811;29;20462;-87
2022/04/28 09:35:53;;;;;;;14.60;13.57;;;29.30;33.30;;;;;;4920678;29;20448;-85
2022/04/28 09:38:20;;;;;;;14.40;13.17;;;29.70;33.40;;;;;;4923858;29;20545;-86
2022/04/28 09:43:56;;;;;;;14.73;13.20;;;28.00;35.50;;;;;;4924339;29;20491;-87
2022/04/28 09:46:28;;;;;;;12.13;11.23;;;29.20;33.10;;;;;;4925419;29;20447;-86
2022/04/28 09:48:55;;;;;;;13.67;12.47;;;29.50;32.10;;;;;;4923284;29;20447;-86
2022/04/28 09:51:24;;;;;;;14.80;13.50;;;30.10;30.60;;;;;;4924155;29;20502;-84
2022/04/28 09:53:51;;;;;;;14.00;12.80;;;29.40;31.40;;;;;;4924619;29;20522;-85
2022/04/28 09:56:24;;;;;;;14.00;12.83;;;27.90;32.70;;;;;;4928831;29;20455;-88
2022/04/28 09:58:51;;;;;;;14.00;12.80;;;27.50;34.10;;;;;;4925038;29;20503;-86
2022/04/28 10:01:19;;;;;;;13.60;12.50;;;28.40;33.00;;;;;;4940852;29;20514;-87
2022/04/28 10:03:47;;;;;;;13.90;12.53;;;28.70;32.50;;;;;;4927314;29;20473;-86
2022/04/28 10:06:15;;;;;;;14.03;12.83;;;28.00;32.60;;;;;;4943347;29;20493;-88
2022/04/28 10:08:42;;;;;;;13.47;12.27;;;28.00;33.10;;;;;;4929997;29;20439;-86
2022/04/28 10:11:17;;;;;;;12.37;11.37;;;27.30;32.80;;;;;;4933548;29;20499;-87
2022/04/28 10:13:46;;;;;;;13.30;12.20;;;26.10;33.30;;;;;;4932625;29;20461;-86
2022/04/28 10:16:13;;;;;;;12.23;11.23;;;26.00;34.40;;;;;;4931929;29;20571;-84
2022/04/28 10:19:19;;;;;;;13.40;12.30;;;27.30;33.50;;;;;;4924278;29;20493;-84
2022/04/28 10:22:01;;;;;;;13.10;12.00;;;27.90;32.50;;;;;;4897510;29;20493;-85
2022/04/28 10:33:21;;;;;;;13.50;12.40;;;29.10;31.40;;;;;;4912487;29;20457;-84
2022/04/28 10:35:50;;;;;;;13.20;12.00;;;29.00;31.80;;;;;;4925536;29;20542;-82
2022/04/28 10:38:25;;;;;;;12.90;11.80;;;27.80;32.60;;;;;;4914041;29;20983;-85
2022/04/28 10:40:59;;;;;;;12.43;11.43;;;27.80;32.80;;;;;;4914485;29;20481;-83
2022/04/28 10:43:31;;;;;;;12.70;11.67;;;26.80;33.40;;;;;;4929699;29;20550;-85
2022/04/28 10:46:28;;;;;;;12.57;11.43;;;26.00;34.60;;;;;;4928564;29;20457;-87
2022/04/28 10:49:02;;;;;;;12.67;11.57;;;26.40;35.10;;;;;;4940985;28;20501;-87
2022/04/28 10:51:33;;;;;;;13.03;11.93;;;27.60;33.70;;;;;;4930507;28;20475;-85
2022/04/28 10:54:21;;;;;;;12.77;11.67;;;29.00;31.10;;;;;;4930764;28;20478;-87
2022/04/28 10:56:52;;;;;;;13.50;12.20;;;27.90;32.00;;;;;;4930651;28;20467;-85
2022/04/28 10:59:25;;;;;;;13.33;12.10;;;26.80;33.20;;;;;;4929479;29;20485;-87
2022/04/28 11:01:52;;;;;;;12.43;11.43;;;26.40;34.20;;;;;;4930934;28;20514;-87
2022/04/28 11:04:24;;;;;;;12.10;11.10;;;26.00;34.20;;;;;;4921500;29;20482;-86
2022/04/28 11:06:55;;;;;;;12.77;11.67;;;26.40;34.40;;;;;;4927285;29;20531;-84
2022/04/28 11:09:34;;;;;;;15.90;12.70;;;27.60;33.40;;;;;;4925822;29;20453;-86
2022/04/28 11:12:13;;;;;;;12.57;11.47;;;28.50;31.90;;;;;;4911239;29;20481;-82
2022/04/28 11:14:45;;;;;;;12.87;11.77;;;27.80;32.30;;;;;;4917174;29;20466;-82
2022/04/28 11:17:14;;;;;;;12.83;11.73;;;26.80;32.80;;;;;;4905741;29;20546;-83
2022/04/28 11:19:42;;;;;;;11.97;10.97;;;26.40;34.60;;;;;;4920683;29;20445;-82
2022/04/28 11:22:11;;;;;;;13.60;12.40;;;27.20;33.30;;;;;;4921118;29;20607;-82
2022/04/28 11:24:45;;;;;;;13.17;12.07;;;26.70;33.30;;;;;;4914648;29;20489;-82
2022/04/28 11:27:19;;;;;;;13.00;11.80;;;26.20;34.00;;;;;;4914043;29;20495;-84
2022/04/28 11:29:48;;;;;;;12.17;11.07;;;26.20;34.20;;;;;;4918456;29;20470;-82
2022/04/28 11:32:16;;;;;;;12.40;11.40;;;26.20;34.10;;;;;;4915505;29;20470;-86
2022/04/28 11:34:46;;;;;;;12.20;11.20;;;27.30;33.20;;;;;;4929956;29;20454;-87
2022/04/28 11:37:22;;;;;;;13.70;12.53;;;27.10;32.40;;;;;;4912858;29;20465;-84
2022/04/28 11:39:53;;;;;;;13.57;12.40;;;26.50;33.60;;;;;;4914844;29;20533;-84
2022/04/28 11:42:45;;;;;;;14.37;13.17;;;26.50;33.50;;;;;;4914981;29;20470;-84
2022/04/28 11:45:13;;;;;;;12.67;11.67;;;26.20;34.20;;;;;;4915118;29;20493;-82
2022/04/28 11:47:46;;;;;;;14.50;13.30;;;27.20;34.10;;;;;;4913721;29;20450;-85
2022/04/28 11:50:24;;;;;;;13.10;11.90;;;26.80;33.50;;;;;;4926882;28;20446;-85
2022/04/28 11:53:07;;;;;;;13.00;12.00;;;26.20;34.30;;;;;;4929005;29;20458;-86
2022/04/28 11:55:38;;;;;;;13.97;12.47;;;26.10;34.60;;;;;;4926333;29;20462;-84
2022/04/28 11:58:07;;;;;;;14.27;13.00;;;25.90;34.50;;;;;;4918146;29;20463;-86
2022/04/28 12:00:46;;;;;;;14.60;13.30;;;25.70;35.00;;;;;;4915791;29;20553;-85
2022/04/28 12:03:23;;;;;;;15.80;14.33;;;27.60;33.60;;;;;;4913231;29;20995;-84
2022/04/28 12:05:52;;;;;;;15.23;13.93;;;27.60;32.40;;;;;;4915454;29;20463;-83
2022/04/28 12:08:24;;;;;;;13.00;11.90;;;26.10;34.10;;;;;;4918758;28;20451;-85
2022/04/28 12:19:24;;;;;;;13.30;12.10;;;26.40;34.20;;;;;;4913007;29;20478;-85
2022/04/28 12:21:51;;;;;;;12.43;11.33;;;25.80;34.50;;;;;;4916725;29;20481;-85
2022/04/28 12:24:29;;;;;;;13.20;12.00;;;25.80;35.50;;;;;;4918893;29;20504;-89
2022/04/28 12:26:56;;;;;;;13.40;12.10;;;26.00;35.10;;;;;;4914306;29;20527;-85
2022/04/28 12:29:26;;;;;;;13.40;12.10;;;25.90;34.50;;;;;;4891249;29;20541;-82
2022/04/28 12:31:56;;;;;;;14.17;12.77;;;26.80;34.70;;;;;;4919953;29;20474;-86
2022/04/28 12:34:37;;;;;;;12.00;10.90;;;27.60;32.70;;;;;;4918273;29;20521;-87
2022/04/28 12:37:03;;;;;;;12.63;11.53;;;26.90;33.00;;;;;;4921255;29;20472;-84
2022/04/28 12:39:31;;;;;;;13.07;11.90;;;26.50;34.10;;;;;;4925880;29;20450;-83
2022/04/28 12:41:58;;;;;;;13.60;12.27;;;26.80;34.30;;;;;;4925455;29;20467;-85
2022/04/28 12:44:26;;;;;;;12.80;11.60;;;27.00;33.00;;;;;;4921641;29;20478;-84
2022/04/28 12:47:04;;;;;;;12.40;11.30;;;27.60;32.10;;;;;;4927748;29;20468;-84
2022/04/28 12:49:44;;;;;;;12.77;11.37;;;27.10;32.50;;;;;;4925230;29;20455;-86
2022/04/28 12:52:33;;;;;;;17.30;11.73;;;27.30;32.50;;;;;;4922727;29;20517;-85
2022/04/28 12:55:01;;;;;;;12.40;11.20;;;27.00;33.30;;;;;;4924177;29;20526;-85
2022/04/28 12:57:30;;;;;;;12.40;10.83;;;26.90;33.10;;;;;;4923841;29;20465;-86
2022/04/28 13:00:00;;;;;;;12.37;11.17;;;26.40;34.10;;;;;;4924671;28;20488;-83
2022/04/28 13:02:30;;;;;;;13.87;12.47;;;26.00;34.40;;;;;;4921996;29;20490;-84
2022/04/28 13:05:17;;;;;;;13.73;11.57;;;26.60;33.60;;;;;;4920328;29;20488;-84
2022/04/28 13:08:02;;;;;;;13.03;11.43;;;26.20;33.70;;;;;;4933680;29;20563;-84
2022/04/28 13:10:29;;;;;;;12.50;10.00;;;25.70;34.70;;;;;;4922307;29;20474;-83
2022/04/28 13:12:55;;;;;;;12.07;10.97;;;25.90;34.70;;;;;;4922706;29;20537;-86
2022/04/28 13:15:22;;;;;;;12.40;11.17;;;26.60;34.00;;;;;;4919081;29;20468;-85
2022/04/28 13:17:49;;;;;;;14.87;11.20;;;26.30;34.70;;;;;;4923836;29;20460;-85
2022/04/28 13:20:16;;;;;;;12.40;10.80;;;25.90;34.40;;;;;;4919091;29;20550;-84
2022/04/28 13:22:43;;;;;;;11.70;10.10;;;26.00;34.20;;;;;;4917752;29;20477;-86
2022/04/28 13:25:12;;;;;;;13.47;11.73;;;26.00;34.10;;;;;;4917958;29;20525;-84